Time;durP1;ratioP1;P1;durP2;ratioP2;P2;SDS_P1;SDS_P2;PMS_P1;PMS_P2;Temp;Humidity;BMP_temperature;BMP_pressure;BME280_temperature;BME280_humidity;BME280_pressure;Samples;Min_cycle;Max_cycle;Signal;HPM_P1;HPM_P2
2021/09/20 00:00:11;;;;;;;;;2.00;2.00;;;;;;;;2773583;51;8766;-67
2021/09/20 00:02:37;;;;;;;;;3.00;2.00;;;;;;;;2773445;51;9251;-68
2021/09/20 00:05:03;;;;;;;;;4.00;3.00;;;;;;;;2772053;51;11401;-62
2021/09/20 00:07:29;;;;;;;;;4.50;2.50;;;;;;;;2767810;51;8773;-70
2021/09/20 00:09:54;;;;;;;;;5.67;3.67;;;;;;;;2767797;51;8765;-67
2021/09/20 00:12:20;;;;;;;;;4.33;3.00;;;;;;;;2767557;51;8775;-67
2021/09/20 00:14:46;;;;;;;;;3.00;3.00;;;;;;;;2767430;51;8884;-69
2021/09/20 00:17:11;;;;;;;;;4.00;3.00;;;;;;;;2767206;51;8785;-67
2021/09/20 00:19:37;;;;;;;;;2.33;2.33;;;;;;;;2767767;51;11575;-68
2021/09/20 00:22:03;;;;;;;;;3.00;3.00;;;;;;;;2767238;51;8880;-71
2021/09/20 00:24:28;;;;;;;;;4.00;4.00;;;;;;;;2767407;51;8761;-67
2021/09/20 00:26:54;;;;;;;;;3.67;2.00;;;;;;;;2767729;51;8773;-67
2021/09/20 00:29:19;;;;;;;;;0.00;0.00;;;;;;;;2767702;51;8772;-76
2021/09/20 00:31:45;;;;;;;;;3.33;3.33;;;;;;;;2767327;51;8793;-71
2021/09/20 00:34:11;;;;;;;;;2.33;1.33;;;;;;;;2767421;51;8798;-74
2021/09/20 00:36:36;;;;;;;;;4.00;2.00;;;;;;;;2767350;51;8788;-72
2021/09/20 00:39:02;;;;;;;;;2.00;2.00;;;;;;;;2767352;51;8888;-72
2021/09/20 00:41:28;;;;;;;;;2.50;2.00;;;;;;;;2767510;51;8809;-75
2021/09/20 00:43:53;;;;;;;;;2.00;2.00;;;;;;;;2767448;51;8908;-70
2021/09/20 00:46:19;;;;;;;;;2.00;2.00;;;;;;;;2767569;51;8772;-73
2021/09/20 00:48:45;;;;;;;;;2.00;1.67;;;;;;;;2767355;51;8758;-75
2021/09/20 00:51:10;;;;;;;;;3.67;2.00;;;;;;;;2762024;51;8788;-71
2021/09/20 00:53:36;;;;;;;;;3.00;3.00;;;;;;;;2769130;51;8885;-75
2021/09/20 00:56:02;;;;;;;;;4.67;3.33;;;;;;;;2773695;51;8811;-74
2021/09/20 00:58:28;;;;;;;;;2.25;2.00;;;;;;;;2772845;51;8872;-70
2021/09/20 01:00:53;;;;;;;;;2.00;2.00;;;;;;;;2773182;51;11497;-73
2021/09/20 01:03:19;;;;;;;;;1.75;1.75;;;;;;;;2773108;51;8897;-74
2021/09/20 01:05:45;;;;;;;;;2.00;2.00;;;;;;;;2773565;51;8778;-76
2021/09/20 01:08:10;;;;;;;;;1.50;1.00;;;;;;;;2773463;51;8755;-75
2021/09/20 01:10:36;;;;;;;;;1.50;1.50;;;;;;;;2773689;51;8763;-74
2021/09/20 01:13:02;;;;;;;;;1.00;1.00;;;;;;;;2773416;51;8747;-74
2021/09/20 01:15:28;;;;;;;;;5.00;2.75;;;;;;;;2773277;51;8755;-74
2021/09/20 01:17:53;;;;;;;;;2.00;2.00;;;;;;;;2773231;51;8856;-75
2021/09/20 01:20:21;;;;;;;;;3.00;2.00;;;;;;;;2773270;51;8788;-75
2021/09/20 01:22:50;;;;;;;;;2.00;2.00;;;;;;;;2773288;51;8793;-75
2021/09/20 01:25:15;;;;;;;;;2.25;2.25;;;;;;;;2773144;51;8754;-75
2021/09/20 01:27:41;;;;;;;;;2.75;0.75;;;;;;;;2772985;51;8852;-75
2021/09/20 01:30:07;;;;;;;;;2.67;2.67;;;;;;;;2773061;51;8837;-74
2021/09/20 01:32:33;;;;;;;;;2.00;2.00;;;;;;;;2773609;51;11504;-74
2021/09/20 01:34:59;;;;;;;;;4.67;4.00;;;;;;;;2773184;51;8759;-74
2021/09/20 01:37:25;;;;;;;;;0.00;0.00;;;;;;;;2773136;51;8783;-76
2021/09/20 01:39:51;;;;;;;;;3.00;3.00;;;;;;;;2772777;51;8862;-75
2021/09/20 01:42:16;;;;;;;;;3.00;3.00;;;;;;;;2773010;51;9004;-75
2021/09/20 01:44:42;;;;;;;;;3.00;3.00;;;;;;;;2773126;51;8783;-75
2021/09/20 01:47:08;;;;;;;;;3.67;2.67;;;;;;;;2773348;51;8762;-76
2021/09/20 01:49:33;;;;;;;;;5.00;4.00;;;;;;;;2773380;51;8779;-76
2021/09/20 01:51:59;;;;;;;;;4.00;3.00;;;;;;;;2773142;51;8762;-76
2021/09/20 01:54:25;;;;;;;;;3.00;2.33;;;;;;;;2773368;51;8783;-75
2021/09/20 01:56:51;;;;;;;;;3.75;3.75;;;;;;;;2773314;51;8779;-77
2021/09/20 01:59:17;;;;;;;;;4.33;3.00;;;;;;;;2773230;51;8770;-76
2021/09/20 02:01:42;;;;;;;;;4.00;4.00;;;;;;;;2772993;51;8787;-77
2021/09/20 02:04:08;;;;;;;;;1.50;1.50;;;;;;;;2773026;51;8803;-73
2021/09/20 02:06:33;;;;;;;;;2.00;2.00;;;;;;;;2773004;51;8770;-76
2021/09/20 02:08:59;;;;;;;;;2.00;2.00;;;;;;;;2772974;51;8778;-77
2021/09/20 02:11:25;;;;;;;;;3.33;2.33;;;;;;;;2773272;51;9383;-76
2021/09/20 02:13:52;;;;;;;;;2.00;2.00;;;;;;;;2772937;51;9303;-74
2021/09/20 02:16:17;;;;;;;;;2.00;1.00;;;;;;;;2773054;51;8767;-74
2021/09/20 02:18:43;;;;;;;;;2.67;1.67;;;;;;;;2772630;51;8762;-74
2021/09/20 02:21:09;;;;;;;;;4.33;3.00;;;;;;;;2772910;51;8783;-75
2021/09/20 02:23:35;;;;;;;;;2.50;2.50;;;;;;;;2773201;51;8763;-74
2021/09/20 02:26:01;;;;;;;;;3.75;3.75;;;;;;;;2773231;51;8759;-74
2021/09/20 02:28:27;;;;;;;;;2.00;2.00;;;;;;;;2773090;51;8763;-73
2021/09/20 02:30:53;;;;;;;;;3.50;3.50;;;;;;;;2772845;51;8778;-74
2021/09/20 02:33:19;;;;;;;;;4.00;3.00;;;;;;;;2773277;51;8778;-74
2021/09/20 02:35:44;;;;;;;;;3.00;1.67;;;;;;;;2772820;51;8777;-76
2021/09/20 02:38:10;;;;;;;;;2.00;2.00;;;;;;;;2772791;51;8908;-75
2021/09/20 02:40:36;;;;;;;;;2.67;1.67;;;;;;;;2773499;51;8750;-74
2021/09/20 02:43:02;;;;;;;;;1.67;1.33;;;;;;;;2773995;51;11416;-74
2021/09/20 02:45:27;;;;;;;;;3.67;3.67;;;;;;;;2773722;51;8758;-74
2021/09/20 02:47:53;;;;;;;;;3.67;3.00;;;;;;;;2774047;51;9251;-76
2021/09/20 02:50:19;;;;;;;;;3.67;3.67;;;;;;;;2773850;51;8781;-75
2021/09/20 02:52:44;;;;;;;;;4.00;2.00;;;;;;;;2773753;51;8783;-76
2021/09/20 02:55:11;;;;;;;;;3.00;2.00;;;;;;;;2773828;51;8802;-77
2021/09/20 02:57:36;;;;;;;;;3.50;2.50;;;;;;;;2774034;51;8886;-75
2021/09/20 03:00:03;;;;;;;;;2.67;1.00;;;;;;;;2773998;51;8751;-74
2021/09/20 03:02:30;;;;;;;;;1.25;1.25;;;;;;;;2773650;51;9388;-74
2021/09/20 03:04:55;;;;;;;;;1.33;1.33;;;;;;;;2773632;51;8763;-74
2021/09/20 03:07:21;;;;;;;;;1.00;1.00;;;;;;;;2773813;51;8762;-75
2021/09/20 03:09:47;;;;;;;;;2.00;2.00;;;;;;;;2773768;51;9487;-74
2021/09/20 03:12:15;;;;;;;;;2.00;2.00;;;;;;;;2773641;51;8856;-75
2021/09/20 03:14:43;;;;;;;;;2.00;2.00;;;;;;;;2773281;51;8856;-74
2021/09/20 03:17:09;;;;;;;;;3.33;2.33;;;;;;;;2773501;51;8782;-75
2021/09/20 03:19:35;;;;;;;;;2.00;1.00;;;;;;;;2773535;51;8774;-76
2021/09/20 03:22:01;;;;;;;;;1.67;1.67;;;;;;;;2773662;51;8782;-75
2021/09/20 03:24:26;;;;;;;;;1.40;0.80;;;;;;;;2773500;51;8751;-75
2021/09/20 03:26:52;;;;;;;;;3.33;2.33;;;;;;;;2773443;51;8897;-78
2021/09/20 03:29:19;;;;;;;;;2.00;2.00;;;;;;;;2773470;51;8909;-76
2021/09/20 03:31:45;;;;;;;;;4.00;2.75;;;;;;;;2773655;51;8783;-75
2021/09/20 03:34:11;;;;;;;;;1.00;1.00;;;;;;;;2773545;51;8774;-75
2021/09/20 03:36:36;;;;;;;;;2.67;2.67;;;;;;;;2773540;51;8782;-75
2021/09/20 03:39:02;;;;;;;;;2.00;2.00;;;;;;;;2773563;51;8773;-74
2021/09/20 03:41:28;;;;;;;;;2.33;1.00;;;;;;;;2773603;51;8833;-74
2021/09/20 03:43:53;;;;;;;;;2.75;2.75;;;;;;;;2773562;51;8759;-75
2021/09/20 03:46:19;;;;;;;;;4.00;2.00;;;;;;;;2773240;51;8763;-75
2021/09/20 03:48:45;;;;;;;;;2.00;2.00;;;;;;;;2773867;51;8771;-75
2021/09/20 03:51:10;;;;;;;;;2.00;2.00;;;;;;;;2773810;51;8759;-75
2021/09/20 03:53:36;;;;;;;;;2.33;1.67;;;;;;;;2773574;51;8799;-76
2021/09/20 03:56:02;;;;;;;;;1.00;1.00;;;;;;;;2773501;51;8787;-75
2021/09/20 03:58:28;;;;;;;;;4.25;2.50;;;;;;;;2773622;51;8783;-74
2021/09/20 04:00:53;;;;;;;;;4.33;2.67;;;;;;;;2773577;51;8781;-75
2021/09/20 04:03:19;;;;;;;;;1.33;1.33;;;;;;;;2773584;51;8766;-75
2021/09/20 04:05:44;;;;;;;;;4.00;2.33;;;;;;;;2773475;51;8763;-77
2021/09/20 04:08:13;;;;;;;;;3.67;2.00;;;;;;;;2773655;51;8771;-76
2021/09/20 04:10:39;;;;;;;;;4.25;4.00;;;;;;;;2773745;51;8750;-75
2021/09/20 04:13:05;;;;;;;;;4.00;2.33;;;;;;;;2773351;51;8782;-75
2021/09/20 04:15:30;;;;;;;;;3.00;3.00;;;;;;;;2773600;51;8754;-75
2021/09/20 04:17:56;;;;;;;;;3.33;3.00;;;;;;;;2773461;51;9443;-77
2021/09/20 04:20:21;;;;;;;;;6.33;4.00;;;;;;;;2773498;51;8759;-77
2021/09/20 04:22:48;;;;;;;;;2.33;2.33;;;;;;;;2772694;51;8786;-77
2021/09/20 04:25:14;;;;;;;;;3.75;3.75;;;;;;;;2773691;51;8766;-77
2021/09/20 04:27:39;;;;;;;;;3.33;3.00;;;;;;;;2773439;51;8792;-76
2021/09/20 04:30:06;;;;;;;;;3.00;3.00;;;;;;;;2772862;51;8771;-77
2021/09/20 04:32:32;;;;;;;;;4.60;3.80;;;;;;;;2772750;51;8759;-77
2021/09/20 04:34:58;;;;;;;;;5.75;2.50;;;;;;;;2773571;51;8770;-76
2021/09/20 04:37:23;;;;;;;;;7.00;3.75;;;;;;;;2773154;51;8856;-71
2021/09/20 04:39:49;;;;;;;;;3.75;3.00;;;;;;;;2773281;51;8886;-72
2021/09/20 04:42:15;;;;;;;;;2.25;2.25;;;;;;;;2773443;51;8913;-76
2021/09/20 04:44:40;;;;;;;;;3.25;3.25;;;;;;;;2773629;51;8759;-73
2021/09/20 04:47:06;;;;;;;;;1.25;1.00;;;;;;;;2773303;51;8771;-72
2021/09/20 04:49:32;;;;;;;;;4.25;3.00;;;;;;;;2773709;51;8778;-72
2021/09/20 04:51:58;;;;;;;;;3.75;3.00;;;;;;;;2773200;51;9459;-72
2021/09/20 04:54:23;;;;;;;;;2.00;2.00;;;;;;;;2773129;51;9031;-72
2021/09/20 04:56:49;;;;;;;;;4.50;3.00;;;;;;;;2773393;51;8762;-72
2021/09/20 04:59:14;;;;;;;;;2.00;2.00;;;;;;;;2773749;51;8770;-73
2021/09/20 05:01:40;;;;;;;;;2.00;1.00;;;;;;;;2773437;51;8901;-72
2021/09/20 05:04:09;;;;;;;;;1.25;1.25;;;;;;;;2772732;51;8771;-72
2021/09/20 05:06:34;;;;;;;;;3.00;2.00;;;;;;;;2773420;51;8767;-72
2021/09/20 05:09:01;;;;;;;;;1.50;1.00;;;;;;;;2773409;51;8862;-72
2021/09/20 05:11:27;;;;;;;;;1.00;1.00;;;;;;;;2773623;51;8852;-73
2021/09/20 05:13:52;;;;;;;;;1.00;1.00;;;;;;;;2773278;51;8759;-71
2021/09/20 05:16:18;;;;;;;;;1.25;1.25;;;;;;;;2772958;51;8907;-73
2021/09/20 05:18:43;;;;;;;;;0.75;0.25;;;;;;;;2772793;51;8763;-72
2021/09/20 05:21:09;;;;;;;;;1.50;1.50;;;;;;;;2773063;51;9428;-74
2021/09/20 05:23:35;;;;;;;;;2.00;1.00;;;;;;;;2773307;51;8801;-73
2021/09/20 05:26:00;;;;;;;;;1.25;1.25;;;;;;;;2772975;51;8758;-72
2021/09/20 05:28:26;;;;;;;;;3.00;2.00;;;;;;;;2773401;51;9412;-72
2021/09/20 05:30:51;;;;;;;;;1.00;1.00;;;;;;;;2772720;51;8794;-72
2021/09/20 05:33:17;;;;;;;;;1.25;1.25;;;;;;;;2772928;51;8770;-73
2021/09/20 05:35:43;;;;;;;;;2.75;2.75;;;;;;;;2773194;51;8782;-75
2021/09/20 05:38:09;;;;;;;;;2.20;2.00;;;;;;;;2772975;51;8786;-74
2021/09/20 05:40:34;;;;;;;;;1.75;1.75;;;;;;;;2773160;51;9396;-74
2021/09/20 05:43:01;;;;;;;;;4.00;2.00;;;;;;;;2773073;51;8969;-73
2021/09/20 05:45:27;;;;;;;;;1.80;1.80;;;;;;;;2773030;51;8755;-75
2021/09/20 05:47:52;;;;;;;;;1.80;1.80;;;;;;;;2773106;51;8754;-73
2021/09/20 05:50:19;;;;;;;;;3.00;1.00;;;;;;;;2772795;51;8782;-73
2021/09/20 05:52:46;;;;;;;;;1.00;1.00;;;;;;;;2773145;51;8825;-73
2021/09/20 05:55:12;;;;;;;;;1.80;1.80;;;;;;;;2773020;51;8909;-72
2021/09/20 05:57:38;;;;;;;;;1.40;1.00;;;;;;;;2773152;51;8771;-74
2021/09/20 06:00:04;;;;;;;;;3.00;2.00;;;;;;;;2773213;51;8755;-74
2021/09/20 06:02:30;;;;;;;;;1.00;1.00;;;;;;;;2773079;51;8779;-74
2021/09/20 06:04:56;;;;;;;;;0.25;0.25;;;;;;;;2773014;51;8739;-73
2021/09/20 06:07:21;;;;;;;;;1.75;1.75;;;;;;;;2772884;51;8762;-73
2021/09/20 06:09:47;;;;;;;;;1.75;1.75;;;;;;;;2773182;51;8843;-73
2021/09/20 06:12:13;;;;;;;;;0.75;0.75;;;;;;;;2772917;51;8771;-72
2021/09/20 06:14:39;;;;;;;;;2.50;2.00;;;;;;;;2772889;51;8885;-73
2021/09/20 06:17:04;;;;;;;;;2.00;1.00;;;;;;;;2772855;51;8763;-73
2021/09/20 06:19:30;;;;;;;;;2.00;2.00;;;;;;;;2772789;51;12015;-74
2021/09/20 06:21:56;;;;;;;;;1.75;1.75;;;;;;;;2772843;51;8794;-73
2021/09/20 06:24:21;;;;;;;;;2.25;2.00;;;;;;;;2773205;51;8773;-74
2021/09/20 06:26:47;;;;;;;;;1.00;1.00;;;;;;;;2772794;51;8872;-73
2021/09/20 06:29:13;;;;;;;;;1.75;1.75;;;;;;;;2772486;51;8747;-74
2021/09/20 06:31:38;;;;;;;;;0.75;0.75;;;;;;;;2773088;51;8904;-74
2021/09/20 06:34:04;;;;;;;;;2.60;1.60;;;;;;;;2772852;51;8747;-73
2021/09/20 06:36:30;;;;;;;;;3.00;2.00;;;;;;;;2772848;51;8762;-72
2021/09/20 06:38:57;;;;;;;;;2.75;2.00;;;;;;;;2772794;51;8885;-73
2021/09/20 06:41:23;;;;;;;;;1.20;1.00;;;;;;;;2773302;51;8794;-73
2021/09/20 06:43:48;;;;;;;;;1.00;1.00;;;;;;;;2772774;51;8896;-73
2021/09/20 06:46:14;;;;;;;;;1.75;1.75;;;;;;;;2772657;51;8881;-73
2021/09/20 06:48:40;;;;;;;;;2.50;2.50;;;;;;;;2772920;51;8750;-73
2021/09/20 06:51:06;;;;;;;;;1.00;1.00;;;;;;;;2772302;51;8844;-73
2021/09/20 06:53:31;;;;;;;;;1.00;1.00;;;;;;;;2772690;51;8759;-74
2021/09/20 06:55:57;;;;;;;;;2.67;1.67;;;;;;;;2772527;51;8763;-74
2021/09/20 06:58:22;;;;;;;;;1.75;1.75;;;;;;;;2772664;51;9515;-74
2021/09/20 07:00:48;;;;;;;;;0.75;0.75;;;;;;;;2772578;51;8747;-75
2021/09/20 07:03:13;;;;;;;;;1.67;1.00;;;;;;;;2772786;51;8827;-73
2021/09/20 07:05:40;;;;;;;;;0.75;0.75;;;;;;;;2772699;51;8794;-74
2021/09/20 07:08:06;;;;;;;;;0.50;0.50;;;;;;;;2772920;51;8798;-74
2021/09/20 07:10:31;;;;;;;;;1.00;1.00;;;;;;;;2772871;51;8759;-73
2021/09/20 07:12:57;;;;;;;;;0.33;0.33;;;;;;;;2772922;51;8763;-75
2021/09/20 07:15:23;;;;;;;;;0.00;0.00;;;;;;;;2769626;51;8796;-73
2021/09/20 07:17:48;;;;;;;;;1.00;1.00;;;;;;;;2767106;51;9376;-74
2021/09/20 07:20:14;;;;;;;;;0.00;0.00;;;;;;;;2772694;51;8794;-77
2021/09/20 07:22:39;;;;;;;;;0.00;0.00;;;;;;;;2771330;51;8781;-73
2021/09/20 07:25:06;;;;;;;;;0.67;0.67;;;;;;;;2766517;51;8933;-74
2021/09/20 07:27:32;;;;;;;;;0.00;0.00;;;;;;;;2767263;51;8800;-73
2021/09/20 07:29:57;;;;;;;;;0.00;0.00;;;;;;;;2767040;51;8773;-74
2021/09/20 07:32:23;;;;;;;;;0.00;0.00;;;;;;;;2772413;51;8869;-73
2021/09/20 07:34:48;;;;;;;;;0.00;0.00;;;;;;;;2773605;51;8763;-74
2021/09/20 07:37:15;;;;;;;;;0.00;0.00;;;;;;;;2773603;51;8750;-74
2021/09/20 07:39:41;;;;;;;;;0.00;0.00;;;;;;;;2773543;51;8762;-74
2021/09/20 07:42:08;;;;;;;;;1.00;0.00;;;;;;;;2773721;51;8791;-73
2021/09/20 07:44:34;;;;;;;;;0.00;0.00;;;;;;;;2773657;51;9008;-76
2021/09/20 07:47:00;;;;;;;;;0.00;0.00;;;;;;;;2773537;51;8766;-71
2021/09/20 07:49:25;;;;;;;;;0.00;0.00;;;;;;;;2769129;51;8895;-71
2021/09/20 07:51:51;;;;;;;;;0.00;0.00;;;;;;;;2767825;51;11350;-72
2021/09/20 07:54:16;;;;;;;;;0.00;0.00;;;;;;;;2767499;51;8816;-75
2021/09/20 07:56:42;;;;;;;;;0.00;0.00;;;;;;;;2767381;51;8773;-75
2021/09/20 07:59:08;;;;;;;;;0.00;0.00;;;;;;;;2767590;51;8847;-71
2021/09/20 08:01:33;;;;;;;;;0.00;0.00;;;;;;;;2767605;51;8794;-72
2021/09/20 08:04:00;;;;;;;;;0.00;0.00;;;;;;;;2767448;51;8886;-75
2021/09/20 08:06:28;;;;;;;;;0.00;0.00;;;;;;;;2767753;51;8787;-73
2021/09/20 08:08:54;;;;;;;;;0.00;0.00;;;;;;;;2767057;51;8765;-73
2021/09/20 08:11:19;;;;;;;;;0.00;0.00;;;;;;;;2767826;51;8882;-72
2021/09/20 08:13:45;;;;;;;;;0.00;0.00;;;;;;;;2767831;51;9264;-73
2021/09/20 08:16:10;;;;;;;;;0.00;0.00;;;;;;;;2767351;51;8913;-73
2021/09/20 08:18:36;;;;;;;;;0.00;0.00;;;;;;;;2767736;51;8903;-78
2021/09/20 08:21:02;;;;;;;;;0.00;0.00;;;;;;;;2767487;51;8776;-72
2021/09/20 08:23:27;;;;;;;;;0.00;0.00;;;;;;;;2771348;51;8790;-78
2021/09/20 08:25:54;;;;;;;;;0.00;0.00;;;;;;;;2773293;51;8884;-76
2021/09/20 08:28:19;;;;;;;;;0.00;0.00;;;;;;;;2773458;51;8775;-75
2021/09/20 08:30:45;;;;;;;;;1.50;0.75;;;;;;;;2773572;51;8891;-76
2021/09/20 08:33:10;;;;;;;;;2.00;2.00;;;;;;;;2771645;51;8757;-75
2021/09/20 08:35:36;;;;;;;;;1.00;1.00;;;;;;;;2767391;51;8781;-70
2021/09/20 08:38:02;;;;;;;;;2.00;2.00;;;;;;;;2767303;51;8777;-71
2021/09/20 08:40:28;;;;;;;;;0.20;0.00;;;;;;;;2767503;51;8777;-73
2021/09/20 08:42:54;;;;;;;;;0.00;0.00;;;;;;;;2767287;51;8793;-74
2021/09/20 08:45:21;;;;;;;;;0.00;0.00;;;;;;;;2767810;51;8762;-70
2021/09/20 08:47:48;;;;;;;;;0.80;0.80;;;;;;;;2767413;51;8769;-72
2021/09/20 08:50:15;;;;;;;;;1.80;0.40;;;;;;;;2767251;51;8786;-72
2021/09/20 08:52:41;;;;;;;;;0.00;0.00;;;;;;;;2767177;51;8908;-72
2021/09/20 08:55:07;;;;;;;;;0.00;0.00;;;;;;;;2767390;51;8789;-71
2021/09/20 08:57:33;;;;;;;;;0.00;0.00;;;;;;;;2767443;51;8781;-73
2021/09/20 08:59:59;;;;;;;;;0.00;0.00;;;;;;;;2767356;51;8803;-70
2021/09/20 09:02:25;;;;;;;;;0.00;0.00;;;;;;;;2767305;51;8792;-71
2021/09/20 09:04:51;;;;;;;;;0.00;0.00;;;;;;;;2767276;51;8892;-73
2021/09/20 09:07:18;;;;;;;;;0.00;0.00;;;;;;;;2767194;51;8766;-72
2021/09/20 09:09:46;;;;;;;;;0.00;0.00;;;;;;;;2767024;51;11512;-77
2021/09/20 09:12:17;;;;;;;;;0.00;0.00;;;;;;;;2767143;51;9407;-69
2021/09/20 09:14:45;;;;;;;;;0.00;0.00;;;;;;;;2767330;51;8762;-74
2021/09/20 09:17:17;;;;;;;;;0.00;0.00;;;;;;;;2767161;51;8761;-75
2021/09/20 09:19:44;;;;;;;;;1.40;1.40;;;;;;;;2767201;51;8779;-77
2021/09/20 09:22:09;;;;;;;;;2.80;2.80;;;;;;;;2767175;51;8899;-76
2021/09/20 09:24:35;;;;;;;;;7.00;7.00;;;;;;;;2766952;51;8894;-75
2021/09/20 09:27:02;;;;;;;;;10.00;9.00;;;;;;;;2767162;51;8777;-74
2021/09/20 09:29:32;;;;;;;;;13.25;13.25;;;;;;;;2767001;51;8773;-72
2021/09/20 09:31:59;;;;;;;;;16.25;16.25;;;;;;;;2767180;51;8808;-71
2021/09/20 09:34:24;;;;;;;;;27.75;27.50;;;;;;;;2764188;51;11339;-76
2021/09/20 09:36:50;;;;;;;;;31.00;29.50;;;;;;;;2762846;51;11434;-75
2021/09/20 09:39:29;;;;;;;;;25.50;25.50;;;;;;;;2766368;51;11504;-68
2021/09/20 09:41:55;;;;;;;;;31.33;29.33;;;;;;;;2767021;51;8888;-68
2021/09/20 09:44:26;;;;;;;;;44.00;38.25;;;;;;;;2766549;51;9640;-71
2021/09/20 09:46:51;;;;;;;;;22.25;22.25;;;;;;;;2766998;51;11601;-74
2021/09/20 09:49:18;;;;;;;;;17.00;17.00;;;;;;;;2766568;51;11481;-73
2021/09/20 09:52:02;;;;;;;;;9.50;9.50;;;;;;;;2766622;51;9963;-71
2021/09/20 09:54:29;;;;;;;;;1.00;0.00;;;;;;;;2767049;51;8807;-70
2021/09/20 09:57:18;;;;;;;;;0.00;0.00;;;;;;;;2767157;51;8891;-71
2021/09/20 09:59:53;;;;;;;;;0.00;0.00;;;;;;;;2765621;51;9443;-72
2021/09/20 10:02:22;;;;;;;;;0.00;0.00;;;;;;;;2767069;51;8772;-72
2021/09/20 10:04:50;;;;;;;;;0.00;0.00;;;;;;;;2767182;51;8757;-72
2021/09/20 10:07:21;;;;;;;;;0.00;0.00;;;;;;;;2766805;51;8880;-70
2021/09/20 10:09:46;;;;;;;;;1.25;0.00;;;;;;;;2767156;51;8750;-71
2021/09/20 10:12:12;;;;;;;;;0.00;0.00;;;;;;;;2766950;51;8793;-73
2021/09/20 10:14:38;;;;;;;;;1.33;0.00;;;;;;;;2766876;51;8821;-69
2021/09/20 10:17:04;;;;;;;;;0.75;0.75;;;;;;;;2767022;51;8784;-71
2021/09/20 10:19:30;;;;;;;;;0.00;0.00;;;;;;;;2766832;51;8782;-67
2021/09/20 10:21:56;;;;;;;;;0.00;0.00;;;;;;;;2767400;51;9579;-71
2021/09/20 10:24:22;;;;;;;;;0.00;0.00;;;;;;;;2772805;51;8891;-73
2021/09/20 10:26:48;;;;;;;;;0.00;0.00;;;;;;;;2772950;51;8767;-71
2021/09/20 10:29:16;;;;;;;;;1.00;0.75;;;;;;;;2767499;51;13890;-73
2021/09/20 10:31:43;;;;;;;;;1.00;1.00;;;;;;;;2771553;51;9803;-73
2021/09/20 10:34:18;;;;;;;;;0.00;0.00;;;;;;;;2773289;51;9001;-72
2021/09/20 10:36:50;;;;;;;;;0.00;0.00;;;;;;;;2773030;51;8789;-76
2021/09/20 10:39:15;;;;;;;;;0.60;0.60;;;;;;;;2771931;51;9955;-72
2021/09/20 10:41:41;;;;;;;;;0.25;0.25;;;;;;;;2772757;51;8775;-70
2021/09/20 10:44:08;;;;;;;;;0.00;0.00;;;;;;;;2772402;51;10185;-70
2021/09/20 10:48:47;;;;;;;;;0.50;0.50;;;;;;;;2798131;50;13325;-73
2021/09/20 10:51:12;;;;;;;;;0.00;0.00;;;;;;;;2790236;51;8780;-72
2021/09/20 10:53:39;;;;;;;;;0.00;0.00;;;;;;;;2791649;51;10006;-73
2021/09/20 10:56:06;;;;;;;;;6.80;6.80;;;;;;;;2790612;51;10234;-73
2021/09/20 10:58:33;;;;;;;;;4.75;4.75;;;;;;;;2789493;51;10258;-73
2021/09/20 11:01:10;;;;;;;;;8.80;8.80;;;;;;;;2789914;51;8756;-68
2021/09/20 11:03:40;;;;;;;;;1.00;1.00;;;;;;;;2790143;51;8760;-69
2021/09/20 11:06:24;;;;;;;;;0.20;0.20;;;;;;;;2790094;51;8796;-73
2021/09/20 11:08:59;;;;;;;;;1.40;1.40;;;;;;;;2790052;51;8795;-74
2021/09/20 11:11:36;;;;;;;;;1.20;1.20;;;;;;;;2789484;51;8806;-73
2021/09/20 11:14:05;;;;;;;;;4.00;4.00;;;;;;;;2787268;51;8785;-75
2021/09/20 11:16:46;;;;;;;;;10.00;10.00;;;;;;;;2789873;51;8788;-74
2021/09/20 11:19:31;;;;;;;;;15.50;15.50;;;;;;;;2789535;51;10387;-72
2021/09/20 11:22:08;;;;;;;;;7.00;7.00;;;;;;;;2782766;51;8779;-74
2021/09/20 11:24:34;;;;;;;;;17.50;17.50;;;;;;;;2784190;51;8763;-72
2021/09/20 11:27:00;;;;;;;;;17.50;17.50;;;;;;;;2783740;51;8805;-71
2021/09/20 11:29:27;;;;;;;;;24.50;24.50;;;;;;;;2783872;51;8766;-71
2021/09/20 11:31:53;;;;;;;;;29.00;28.25;;;;;;;;2783698;51;12118;-73
2021/09/20 11:34:28;;;;;;;;;9.25;8.50;;;;;;;;2788566;51;11437;-70
2021/09/20 11:36:54;;;;;;;;;12.00;12.00;;;;;;;;2789120;51;11409;-74
2021/09/20 11:39:20;;;;;;;;;8.67;8.67;;;;;;;;2790022;51;8771;-71
2021/09/20 11:41:54;;;;;;;;;17.50;17.50;;;;;;;;2790139;51;8752;-71
2021/09/20 11:44:25;;;;;;;;;14.25;14.25;;;;;;;;2789996;51;8771;-72
2021/09/20 11:46:51;;;;;;;;;13.25;13.25;;;;;;;;2789897;51;9526;-69
2021/09/20 11:49:17;;;;;;;;;23.50;23.50;;;;;;;;2780672;51;11043;-75
2021/09/20 11:51:43;;;;;;;;;14.75;14.75;;;;;;;;2777710;51;8791;-72
2021/09/20 11:54:25;;;;;;;;;3.00;3.00;;;;;;;;2776932;51;10174;-73
2021/09/20 11:58:14;;;;;;;;;1.00;0.25;;;;;;;;2797379;51;13292;-69
2021/09/20 12:00:43;;;;;;;;;0.25;0.00;;;;;;;;2789406;51;10267;-76
2021/09/20 12:03:11;;;;;;;;;0.00;0.00;;;;;;;;2790877;51;8791;-71
2021/09/20 12:05:47;;;;;;;;;0.00;0.00;;;;;;;;2788479;51;8774;-74
2021/09/20 12:08:14;;;;;;;;;0.00;0.00;;;;;;;;2784023;51;8847;-73
2021/09/20 12:10:41;;;;;;;;;0.00;0.00;;;;;;;;2783952;51;8778;-72
2021/09/20 12:13:08;;;;;;;;;0.00;0.00;;;;;;;;2784950;51;10278;-73
2021/09/20 12:15:35;;;;;;;;;0.00;0.00;;;;;;;;2783713;51;10195;-71
2021/09/20 12:18:00;;;;;;;;;0.00;0.00;;;;;;;;2782245;51;10040;-74
2021/09/20 12:20:28;;;;;;;;;0.00;0.00;;;;;;;;2783856;51;8759;-77
2021/09/20 12:22:54;;;;;;;;;0.00;0.00;;;;;;;;2783642;51;8854;-72
2021/09/20 12:25:29;;;;;;;;;0.00;0.00;;;;;;;;2784582;51;8785;-72
2021/09/20 12:27:55;;;;;;;;;0.00;0.00;;;;;;;;2783984;51;8774;-77
2021/09/20 12:30:22;;;;;;;;;0.00;0.00;;;;;;;;2778813;51;12030;-77
2021/09/20 12:32:49;;;;;;;;;0.00;0.00;;;;;;;;2777146;51;9951;-73
2021/09/20 12:35:15;;;;;;;;;1.20;1.20;;;;;;;;2784318;51;12150;-73
2021/09/20 12:37:41;;;;;;;;;1.00;1.00;;;;;;;;2789537;51;10060;-72
2021/09/20 12:40:23;;;;;;;;;2.00;0.80;;;;;;;;2789955;51;8787;-74
2021/09/20 12:43:08;;;;;;;;;0.80;0.80;;;;;;;;2789933;51;8767;-73
2021/09/20 12:45:44;;;;;;;;;0.40;0.40;;;;;;;;2790014;51;8764;-72
2021/09/20 12:48:13;;;;;;;;;1.00;1.00;;;;;;;;2788535;51;10066;-73
2021/09/20 12:50:44;;;;;;;;;0.00;0.00;;;;;;;;2790280;51;8755;-70
2021/09/20 12:53:10;;;;;;;;;0.00;0.00;;;;;;;;2790234;51;8760;-74
2021/09/20 12:55:37;;;;;;;;;0.50;0.50;;;;;;;;2789822;51;10077;-73
2021/09/20 12:58:04;;;;;;;;;0.20;0.00;;;;;;;;2789643;51;10009;-73
2021/09/20 13:00:35;;;;;;;;;0.00;0.00;;;;;;;;2789773;51;8748;-71
2021/09/20 13:03:20;;;;;;;;;0.20;0.20;;;;;;;;2789702;51;9970;-70
2021/09/20 13:05:47;;;;;;;;;0.40;0.40;;;;;;;;2790309;51;8975;-70
2021/09/20 13:08:13;;;;;;;;;2.00;0.80;;;;;;;;2788322;51;9392;-72
2021/09/20 13:10:45;;;;;;;;;2.50;1.25;;;;;;;;2785884;51;8764;-70
2021/09/20 13:13:12;;;;;;;;;1.00;1.00;;;;;;;;2786226;51;8759;-73
2021/09/20 13:15:45;;;;;;;;;0.40;0.00;;;;;;;;2784502;51;9917;-71
2021/09/20 13:18:20;;;;;;;;;1.00;1.00;;;;;;;;2785758;51;8776;-69
2021/09/20 13:20:47;;;;;;;;;1.00;1.00;;;;;;;;2786039;51;8883;-71
2021/09/20 13:23:13;;;;;;;;;1.00;1.00;;;;;;;;2781170;51;10294;-72
2021/09/20 13:25:46;;;;;;;;;0.00;0.00;;;;;;;;2779955;51;8896;-72
2021/09/20 13:28:17;;;;;;;;;1.00;1.00;;;;;;;;2779599;51;8861;-72
2021/09/20 13:30:47;;;;;;;;;2.00;1.00;;;;;;;;2779630;51;8767;-72
2021/09/20 13:33:13;;;;;;;;;2.00;1.00;;;;;;;;2779690;51;8793;-73
2021/09/20 13:35:40;;;;;;;;;1.00;1.00;;;;;;;;2779544;51;8774;-70
2021/09/20 13:38:06;;;;;;;;;1.00;1.00;;;;;;;;2779011;51;9970;-71
2021/09/20 13:40:32;;;;;;;;;2.00;2.00;;;;;;;;2772767;51;9837;-71
2021/09/20 13:42:58;;;;;;;;;1.00;1.00;;;;;;;;2773567;51;8776;-71
2021/09/20 13:45:23;;;;;;;;;1.00;0.00;;;;;;;;2773305;51;11441;-71
2021/09/20 13:47:49;;;;;;;;;1.50;1.50;;;;;;;;2775722;51;10187;-71
2021/09/20 13:50:15;;;;;;;;;1.00;1.00;;;;;;;;2779398;51;8775;-71
2021/09/20 13:52:41;;;;;;;;;1.60;1.40;;;;;;;;2779313;51;8793;-73
2021/09/20 13:55:09;;;;;;;;;3.00;1.80;;;;;;;;2779535;51;8801;-71
2021/09/20 13:57:34;;;;;;;;;1.00;1.00;;;;;;;;2779245;51;9458;-70
2021/09/20 14:00:00;;;;;;;;;1.25;1.25;;;;;;;;2779513;51;8762;-70
2021/09/20 14:02:26;;;;;;;;;2.25;1.75;;;;;;;;2779495;51;8877;-71
2021/09/20 14:04:52;;;;;;;;;1.80;1.80;;;;;;;;2779448;51;9427;-70
2021/09/20 14:07:18;;;;;;;;;1.00;1.00;;;;;;;;2779229;51;9348;-71
2021/09/20 14:09:44;;;;;;;;;1.00;1.00;;;;;;;;2778719;51;8908;-73
2021/09/20 14:12:09;;;;;;;;;2.00;1.50;;;;;;;;2779272;51;11425;-70
2021/09/20 14:14:35;;;;;;;;;2.50;1.00;;;;;;;;2779284;51;8782;-70
2021/09/20 14:17:00;;;;;;;;;1.25;0.75;;;;;;;;2779250;51;8793;-71
2021/09/20 14:19:26;;;;;;;;;0.50;0.50;;;;;;;;2780862;51;9432;-72
2021/09/20 14:21:52;;;;;;;;;0.75;0.75;;;;;;;;2785342;51;8768;-71
2021/09/20 14:24:18;;;;;;;;;1.00;1.00;;;;;;;;2785717;51;8790;-71
2021/09/20 14:26:43;;;;;;;;;1.00;1.00;;;;;;;;2785598;51;8783;-71
2021/09/20 14:29:09;;;;;;;;;1.50;1.50;;;;;;;;2785458;51;11517;-72
2021/09/20 14:31:35;;;;;;;;;1.00;1.00;;;;;;;;2785353;51;8774;-72
2021/09/20 14:34:01;;;;;;;;;1.50;1.50;;;;;;;;2785257;51;8799;-72
2021/09/20 14:36:27;;;;;;;;;1.00;1.00;;;;;;;;2785341;51;9455;-72
2021/09/20 14:38:52;;;;;;;;;1.00;0.33;;;;;;;;2784888;51;8768;-71
2021/09/20 14:41:18;;;;;;;;;0.25;0.25;;;;;;;;2785322;51;8778;-72
2021/09/20 14:43:43;;;;;;;;;1.00;1.00;;;;;;;;2785289;51;8764;-70
2021/09/20 14:46:09;;;;;;;;;1.00;1.00;;;;;;;;2785395;51;8772;-69
2021/09/20 14:48:35;;;;;;;;;1.75;1.00;;;;;;;;2785471;51;8775;-72
2021/09/20 14:51:05;;;;;;;;;0.80;0.80;;;;;;;;2785432;51;8768;-71
2021/09/20 14:53:31;;;;;;;;;0.00;0.00;;;;;;;;2785245;51;9462;-69